Hlavní strana
METAR-TAF:

METAR-TAF

Letiště :

Sogndal, Norsko

zeměpisná šířka: 61-09N, zeměpisná délka: 007-08E, výška: 49 m

Aktuální stav počasí

Zpráva byla vytvořena před 35 minutami, v 08:20 UTC
Východoseverovýchodní vítr 4 kt
Teplota 6°C
Vlhkost vzduchu 100%
Tlak 1018 hPa
Viditelnost: 1000 m
Skoro jasno
Skoro jasno ve výšce 300 ft
Oblačno až skoro zataženo ve výšce 2500 ft
přeháňky v blízkosti, mlha

METAR: ENSG 150820Z 07004KT 9999 1000E VCSH FG FEW/// FEW003 BKN025 06/06 Q1018 RMK WIND 3806FT 20015KT

Čas: 09:55 (08:55 UTC)


TAF: chybějící

Stav a předpovědi počasí z více než 4 000 letišť (zprávy METAR a TAF).

Červené a žluté tečky na mapě představují dostupné meteorologické stanice.

Když kurzor umístíte na tečku, zobrazí se název stanice.

Pak kliknutím zobrazíte stav a předpověď počasí.

Chcete-li změnit mapu, kliknutím na zelené tlačítko se znaménkem +mapu přiblížíte, kliknutím na zelené tlačítko se znaménkem – mapu oddálíte a kliknutím na zelené šipky přejdete na sousední mapy.


METAR-TAF: